Time;durP1;ratioP1;P1;durP2;ratioP2;P2;SDS_P1;SDS_P2;PMS_P1;PMS_P2;Temp;Humidity;BMP_temperature;BMP_pressure;BME280_temperature;BME280_humidity;BME280_pressure;Samples;Min_cycle;Max_cycle;Signal;HPM_P1;HPM_P2
2021/08/24 00:01:52;;;;;;;0.43;0.43;;;15.40;99.90;;;;;;5052679;28;20040;-75
2021/08/24 00:04:18;;;;;;;0.10;0.10;;;15.30;99.90;;;;;;5070592;23;20048;-91
2021/08/24 00:06:44;;;;;;;0.70;0.70;;;15.30;99.90;;;;;;5030356;28;20018;-91
2021/08/24 00:09:09;;;;;;;0.10;0.10;;;15.30;99.90;;;;;;5029430;28;20142;-92
2021/08/24 00:11:35;;;;;;;0.10;0.10;;;15.30;99.90;;;;;;5028743;28;20029;-91
2021/08/24 00:14:03;;;;;;;0.08;0.08;;;15.30;99.90;;;;;;5028294;28;20033;-91
2021/08/24 00:16:29;;;;;;;0.10;0.10;;;15.30;99.90;;;;;;5030185;28;20017;-91
2021/08/24 00:18:55;;;;;;;0.20;0.20;;;15.40;99.90;;;;;;5013882;28;20052;-91
2021/08/24 00:21:21;;;;;;;0.10;0.10;;;15.50;99.90;;;;;;5031010;28;20038;-93
2021/08/24 00:23:46;;;;;;;0.30;0.30;;;15.30;99.90;;;;;;5012463;28;20028;-91
2021/08/24 00:26:12;;;;;;;0.10;0.10;;;15.20;99.90;;;;;;5012099;28;20036;-91
2021/08/24 00:28:38;;;;;;;0.00;0.00;;;15.20;99.90;;;;;;5012660;28;20033;-91
2021/08/24 00:31:03;;;;;;;0.10;0.10;;;15.30;99.90;;;;;;5013464;28;20033;-91
2021/08/24 00:33:29;;;;;;;0.47;0.47;;;15.30;99.90;;;;;;5014963;28;20083;-91
2021/08/24 00:35:55;;;;;;;0.08;0.08;;;15.30;99.90;;;;;;5014656;28;20029;-91
2021/08/24 00:38:23;;;;;;;0.30;0.10;;;15.50;99.90;;;;;;5013231;28;20037;-91
2021/08/24 00:41:03;;;;;;;0.03;0.03;;;15.40;99.90;;;;;;5011997;28;20026;-91
2021/08/24 00:43:30;;;;;;;1.20;1.10;;;15.40;99.90;;;;;;5012236;28;20030;-91
2021/08/24 00:46:08;;;;;;;0.10;0.10;;;15.20;99.90;;;;;;5010189;28;20021;-92
2021/08/24 00:48:34;;;;;;;0.10;0.10;;;15.20;99.90;;;;;;5010506;28;20022;-92
2021/08/24 00:50:59;;;;;;;0.10;0.10;;;15.30;99.90;;;;;;5012690;28;20100;-91
2021/08/24 00:53:30;;;;;;;0.20;0.20;;;15.40;99.90;;;;;;5012957;28;20036;-92
2021/08/24 00:55:57;;;;;;;0.10;0.10;;;15.20;99.90;;;;;;5010780;28;20045;-91
2021/08/24 00:58:23;;;;;;;0.47;0.47;;;15.10;99.90;;;;;;5010461;28;20098;-92
2021/08/24 01:00:48;;;;;;;0.10;0.10;;;15.10;99.90;;;;;;5012699;28;20033;-91
2021/08/24 01:03:18;;;;;;;0.10;0.10;;;15.20;99.90;;;;;;5013365;28;20041;-91
2021/08/24 01:05:46;;;;;;;0.10;0.10;;;15.40;99.90;;;;;;5013147;28;20037;-92
2021/08/24 01:08:40;;;;;;;0.10;0.10;;;15.50;99.90;;;;;;5013151;28;20021;-91
2021/08/24 01:11:38;;;;;;;0.05;0.05;;;15.50;99.90;;;;;;5012770;28;20033;-91
2021/08/24 01:14:30;;;;;;;0.47;0.47;;;15.60;99.90;;;;;;5017123;28;20033;-89
2021/08/24 01:17:35;;;;;;;0.10;0.10;;;15.60;99.90;;;;;;5024082;28;20020;-91
2021/08/24 01:20:43;;;;;;;0.20;0.20;;;15.60;99.90;;;;;;4994562;28;20049;-90
2021/08/24 01:23:20;;;;;;;0.10;0.10;;;15.50;99.90;;;;;;5013899;28;20044;-92
2021/08/24 01:26:02;;;;;;;0.10;0.10;;;15.60;99.90;;;;;;5012468;28;20025;-92
2021/08/24 01:28:38;;;;;;;0.10;0.10;;;15.50;99.90;;;;;;5015166;28;20021;-92
2021/08/24 01:31:48;;;;;;;0.00;0.00;;;15.40;99.90;;;;;;5016011;28;20022;-91
2021/08/24 01:34:32;;;;;;;0.10;0.10;;;15.40;99.90;;;;;;4955931;28;20033;-92
2021/08/24 01:37:33;;;;;;;0.10;0.10;;;15.50;99.90;;;;;;5013146;28;20321;-92
2021/08/24 01:40:10;;;;;;;0.90;0.90;;;15.60;99.90;;;;;;5013181;28;20116;-91
2021/08/24 01:42:37;;;;;;;0.10;0.10;;;15.60;99.90;;;;;;5013358;28;20449;-92
2021/08/24 01:45:34;;;;;;;0.10;0.10;;;15.50;99.90;;;;;;5013613;28;20022;-92
2021/08/24 01:48:17;;;;;;;0.20;0.20;;;15.40;99.90;;;;;;5012413;28;20022;-92
2021/08/24 01:50:55;;;;;;;0.47;0.47;;;15.50;99.90;;;;;;5012646;28;20032;-91
2021/08/24 01:53:40;;;;;;;0.25;0.25;;;15.40;99.90;;;;;;5012742;28;20057;-92
2021/08/24 01:56:18;;;;;;;0.00;0.00;;;15.30;99.90;;;;;;5013447;28;20030;-92
2021/08/24 01:58:50;;;;;;;0.10;0.10;;;15.40;99.90;;;;;;5013608;28;20037;-92
2021/08/24 02:01:18;;;;;;;;;;;15.50;99.90;;;;;;5016021;28;20025;-92
2021/08/24 02:03:50;;;;;;;0.25;0.25;;;15.50;99.90;;;;;;5016004;28;19917;-92
2021/08/24 02:06:20;;;;;;;;;;;15.30;99.90;;;;;;5017206;28;20559;-92
2021/08/24 02:08:50;;;;;;;0.10;0.10;;;15.30;99.90;;;;;;5017380;28;19969;-92
2021/08/24 02:11:16;;;;;;;0.00;0.00;;;15.30;99.90;;;;;;5017750;28;20176;-92
2021/08/24 02:13:48;;;;;;;0.10;0.10;;;15.30;99.90;;;;;;5015911;28;20092;-92
2021/08/24 02:16:22;;;;;;;0.10;0.10;;;15.20;99.90;;;;;;5017430;28;20025;-92
2021/08/24 02:18:57;;;;;;;0.20;0.20;;;15.30;99.90;;;;;;5019698;28;20075;-94
2021/08/24 02:21:33;;;;;;;0.00;0.00;;;15.10;99.90;;;;;;5018300;28;20033;-93
2021/08/24 02:24:03;;;;;;;0.10;0.10;;;15.10;99.90;;;;;;5018986;28;20037;-92
2021/08/24 02:26:31;;;;;;;0.30;0.30;;;15.10;99.90;;;;;;5016946;28;20025;-93
2021/08/24 02:28:58;;;;;;;0.13;0.13;;;14.70;99.90;;;;;;5017374;28;20028;-92
2021/08/24 02:31:39;;;;;;;0.68;0.68;;;14.80;99.90;;;;;;5018912;28;20483;-92
2021/08/24 02:34:14;;;;;;;0.55;0.32;;;14.80;99.90;;;;;;5013226;28;20026;-92
2021/08/24 02:36:48;;;;;;;2.65;1.35;;;14.50;99.90;;;;;;5012516;28;20025;-93
2021/08/24 02:39:20;;;;;;;0.10;0.10;;;14.10;99.90;;;;;;5012620;28;20402;-92
2021/08/24 02:42:11;;;;;;;0.52;0.45;;;14.20;99.90;;;;;;5013394;28;20524;-92
2021/08/24 02:44:41;;;;;;;0.10;0.10;;;14.10;99.90;;;;;;5013670;28;20026;-92
2021/08/24 02:47:08;;;;;;;0.10;0.10;;;14.10;99.90;;;;;;5014466;28;20022;-92
2021/08/24 02:49:34;;;;;;;0.10;0.10;;;14.10;99.90;;;;;;5012637;28;20035;-92
2021/08/24 02:52:04;;;;;;;0.10;0.10;;;14.30;99.90;;;;;;5014825;28;20064;-92
2021/08/24 02:54:36;;;;;;;0.10;0.10;;;14.40;99.90;;;;;;5015241;28;20030;-92
2021/08/24 02:57:02;;;;;;;0.10;0.10;;;14.30;99.90;;;;;;5013952;28;20025;-92
2021/08/24 02:59:28;;;;;;;0.10;0.10;;;14.30;99.90;;;;;;5014390;28;20029;-91
2021/08/24 03:01:55;;;;;;;0.08;0.08;;;14.40;99.90;;;;;;5013163;28;20029;-92
2021/08/24 03:04:21;;;;;;;0.08;0.08;;;14.40;99.90;;;;;;5014435;28;20045;-92
2021/08/24 03:06:50;;;;;;;0.00;0.00;;;14.50;99.90;;;;;;5017379;28;20026;-91
2021/08/24 03:09:19;;;;;;;0.20;0.20;;;14.80;99.90;;;;;;5032797;28;20060;-92
2021/08/24 03:12:06;;;;;;;0.10;0.10;;;14.80;99.90;;;;;;5014208;28;20035;-92
2021/08/24 03:14:48;;;;;;;0.10;0.10;;;14.80;99.90;;;;;;5015739;28;20050;-92
2021/08/24 03:17:40;;;;;;;0.10;0.10;;;14.80;99.90;;;;;;5015119;28;20021;-92
2021/08/24 03:20:09;;;;;;;0.10;0.10;;;14.80;99.90;;;;;;5014538;28;20071;-93
2021/08/24 03:22:37;;;;;;;0.10;0.10;;;14.80;99.90;;;;;;5016673;28;20026;-92
2021/08/24 03:25:06;;;;;;;0.08;0.08;;;14.80;99.90;;;;;;5014360;28;20112;-91
2021/08/24 03:27:38;;;;;;;1.73;0.73;;;14.80;99.90;;;;;;5013859;28;20112;-92
2021/08/24 03:30:09;;;;;;;0.10;0.10;;;14.80;99.90;;;;;;5016082;28;20022;-92
2021/08/24 03:32:35;;;;;;;0.10;0.10;;;14.70;99.90;;;;;;5016575;28;20021;-92
2021/08/24 03:35:01;;;;;;;0.10;0.10;;;14.70;99.90;;;;;;5015144;28;20022;-91
2021/08/24 03:37:26;;;;;;;0.10;0.10;;;14.80;99.90;;;;;;5017782;28;20018;-91
2021/08/24 03:39:52;;;;;;;3.70;0.60;;;14.80;99.90;;;;;;5013820;28;20105;-92
2021/08/24 03:42:18;;;;;;;0.10;0.10;;;14.80;99.90;;;;;;5012365;28;20083;-92
2021/08/24 03:44:46;;;;;;;0.22;0.22;;;14.70;99.90;;;;;;5012454;28;20437;-92
2021/08/24 03:47:12;;;;;;;1.17;0.55;;;14.70;99.90;;;;;;5013791;28;20017;-92
2021/08/24 03:49:38;;;;;;;0.10;0.10;;;14.70;99.90;;;;;;5013634;28;20036;-93
2021/08/24 03:52:04;;;;;;;0.22;0.22;;;14.80;99.90;;;;;;5013998;28;20025;-92
2021/08/24 03:54:31;;;;;;;0.10;0.10;;;14.60;99.90;;;;;;5013423;28;20075;-92
2021/08/24 03:56:56;;;;;;;0.10;0.10;;;14.60;99.90;;;;;;5013510;28;20030;-93
2021/08/24 03:59:22;;;;;;;0.10;0.10;;;14.50;99.90;;;;;;5012935;28;20630;-92
2021/08/24 04:01:48;;;;;;;0.10;0.10;;;14.40;99.90;;;;;;5012675;28;20075;-92
2021/08/24 04:04:14;;;;;;;0.10;0.10;;;14.50;99.90;;;;;;5013443;28;20068;-93
2021/08/24 04:06:39;;;;;;;0.10;0.10;;;14.50;99.90;;;;;;5013713;28;20524;-92
2021/08/24 04:09:05;;;;;;;0.10;0.10;;;14.50;99.90;;;;;;5013697;28;20021;-92
2021/08/24 04:11:31;;;;;;;0.10;0.10;;;14.60;99.90;;;;;;5013820;28;20049;-93
2021/08/24 04:13:56;;;;;;;0.00;0.00;;;14.70;99.90;;;;;;5013018;28;20032;-93
2021/08/24 04:16:22;;;;;;;0.98;0.80;;;14.80;99.90;;;;;;5014376;28;20044;-92
2021/08/24 04:18:48;;;;;;;0.00;0.00;;;14.80;99.90;;;;;;5014364;28;20093;-92
2021/08/24 04:21:17;;;;;;;1.85;1.75;;;14.70;99.90;;;;;;5013985;28;20037;-92
2021/08/24 04:23:44;;;;;;;0.15;0.15;;;14.80;99.90;;;;;;5013645;28;20029;-91
2021/08/24 04:26:10;;;;;;;1.15;0.85;;;14.80;99.90;;;;;;5013388;28;20021;-93
2021/08/24 04:28:36;;;;;;;0.10;0.10;;;14.70;99.90;;;;;;5013146;28;20048;-92
2021/08/24 04:31:04;;;;;;;0.15;0.15;;;14.60;99.90;;;;;;5016914;28;20026;-93
2021/08/24 04:33:30;;;;;;;0.20;0.20;;;14.50;99.90;;;;;;5014684;28;20092;-92
2021/08/24 04:35:56;;;;;;;0.10;0.10;;;14.60;99.90;;;;;;5014944;28;20092;-92
2021/08/24 04:38:22;;;;;;;0.10;0.10;;;14.40;99.90;;;;;;5016408;28;20025;-92
2021/08/24 04:40:55;;;;;;;0.22;0.22;;;14.40;99.90;;;;;;5011304;28;20064;-93
2021/08/24 04:43:21;;;;;;;0.20;0.20;;;14.30;99.90;;;;;;5027978;28;20026;-93
2021/08/24 04:45:48;;;;;;;0.10;0.10;;;14.30;99.90;;;;;;5009883;28;20128;-93
2021/08/24 04:48:14;;;;;;;0.10;0.10;;;14.30;99.90;;;;;;5013282;28;20025;-93
2021/08/24 04:50:40;;;;;;;0.20;0.20;;;14.50;99.90;;;;;;5012772;28;20114;-92
2021/08/24 04:53:06;;;;;;;0.40;0.40;;;14.40;99.90;;;;;;5012593;28;20025;-93
2021/08/24 04:55:33;;;;;;;0.10;0.10;;;14.50;99.90;;;;;;5012885;28;20029;-92
2021/08/24 04:57:59;;;;;;;0.10;0.10;;;14.40;99.90;;;;;;5012505;28;20056;-93
2021/08/24 05:00:25;;;;;;;0.00;0.00;;;14.40;99.90;;;;;;5012103;28;20043;-92
2021/08/24 05:02:51;;;;;;;0.10;0.10;;;14.40;99.90;;;;;;5012834;28;20028;-93
2021/08/24 05:05:17;;;;;;;0.28;0.28;;;14.40;99.90;;;;;;5012611;28;20040;-92
2021/08/24 05:07:42;;;;;;;0.73;0.47;;;14.50;99.90;;;;;;5016134;28;20029;-93
2021/08/24 05:10:10;;;;;;;0.13;0.13;;;14.40;99.90;;;;;;5022673;28;20025;-93
2021/08/24 05:12:36;;;;;;;0.10;0.10;;;14.20;99.90;;;;;;5028171;28;20025;-92
2021/08/24 05:15:02;;;;;;;0.10;0.10;;;14.30;99.90;;;;;;5021140;28;20037;-92
2021/08/24 05:17:28;;;;;;;0.10;0.10;;;14.30;99.90;;;;;;5025334;28;20756;-90
2021/08/24 05:19:54;;;;;;;0.20;0.20;;;14.20;99.90;;;;;;5031969;28;20021;-92
2021/08/24 05:22:25;;;;;;;0.20;0.20;;;14.30;99.90;;;;;;5024605;28;20029;-91
2021/08/24 05:24:51;;;;;;;0.22;0.22;;;14.30;99.90;;;;;;5020239;28;20038;-92
2021/08/24 05:27:17;;;;;;;0.10;0.10;;;14.20;99.90;;;;;;5026162;28;20025;-92
2021/08/24 05:29:42;;;;;;;0.10;0.10;;;14.20;99.90;;;;;;5015573;28;20056;-92
2021/08/24 05:32:08;;;;;;;0.43;0.43;;;14.20;99.90;;;;;;5023748;28;20060;-90
2021/08/24 05:34:34;;;;;;;0.10;0.10;;;14.20;99.90;;;;;;5027753;28;20025;-91
2021/08/24 05:37:03;;;;;;;0.10;0.10;;;14.30;99.90;;;;;;5035322;28;20041;-91
2021/08/24 05:39:29;;;;;;;0.20;0.20;;;14.40;99.90;;;;;;5024080;28;20039;-92
2021/08/24 05:41:57;;;;;;;0.50;0.50;;;14.40;99.90;;;;;;5030909;28;20049;-92
2021/08/24 05:44:23;;;;;;;0.55;0.55;;;14.30;99.90;;;;;;5023823;28;20034;-92
2021/08/24 05:46:48;;;;;;;0.10;0.10;;;14.10;99.90;;;;;;5033592;28;20068;-93
2021/08/24 05:49:14;;;;;;;0.10;0.10;;;13.90;99.90;;;;;;5028615;28;20017;-91
2021/08/24 05:51:40;;;;;;;0.95;0.95;;;14.00;99.90;;;;;;5031310;28;20030;-92
2021/08/24 05:54:06;;;;;;;0.10;0.10;;;14.00;99.90;;;;;;5027006;28;20097;-91
2021/08/24 05:56:32;;;;;;;0.25;0.25;;;14.00;99.90;;;;;;5032272;28;20021;-92
2021/08/24 05:58:58;;;;;;;0.13;0.13;;;13.90;99.90;;;;;;5015009;28;20060;-91
2021/08/24 06:01:29;;;;;;;0.65;0.60;;;13.80;99.90;;;;;;5014330;28;20033;-92
2021/08/24 06:03:56;;;;;;;0.20;0.20;;;13.80;99.90;;;;;;5030447;28;20036;-92
2021/08/24 06:06:25;;;;;;;0.40;0.40;;;14.00;99.90;;;;;;5030487;28;20264;-91
2021/08/24 06:08:52;;;;;;;0.50;0.50;;;14.00;99.90;;;;;;5023945;28;20017;-92
2021/08/24 06:11:27;;;;;;;0.38;0.38;;;14.10;99.90;;;;;;5021505;28;20068;-91
2021/08/24 06:13:54;;;;;;;0.30;0.30;;;14.00;99.90;;;;;;5035382;28;20116;-92
2021/08/24 06:16:20;;;;;;;0.52;0.52;;;13.90;99.90;;;;;;5032302;28;20025;-91
2021/08/24 06:18:46;;;;;;;0.10;0.10;;;14.00;99.90;;;;;;5022907;28;20036;-93
2021/08/24 06:21:13;;;;;;;0.10;0.10;;;14.00;99.90;;;;;;5023929;28;20017;-92
2021/08/24 06:23:39;;;;;;;0.20;0.20;;;14.00;99.90;;;;;;5034557;28;20021;-91
2021/08/24 06:26:05;;;;;;;0.20;0.20;;;14.00;99.90;;;;;;5023709;28;20005;-91
2021/08/24 06:28:31;;;;;;;0.13;0.13;;;14.20;99.90;;;;;;5031845;28;20040;-91
2021/08/24 06:30:57;;;;;;;0.35;0.35;;;14.20;99.90;;;;;;5029353;28;20030;-92
2021/08/24 06:33:34;;;;;;;0.20;0.20;;;13.90;99.90;;;;;;5023606;28;20045;-92
2021/08/24 06:36:00;;;;;;;0.20;0.20;;;13.80;99.90;;;;;;5023693;28;20132;-92
2021/08/24 06:38:26;;;;;;;0.10;0.10;;;13.90;99.90;;;;;;5026837;28;20021;-91
2021/08/24 06:40:52;;;;;;;0.10;0.10;;;14.00;99.90;;;;;;5033024;28;20052;-91
2021/08/24 06:43:18;;;;;;;0.13;0.13;;;13.90;99.90;;;;;;5024900;28;20048;-91
2021/08/24 06:45:46;;;;;;;0.35;0.35;;;14.00;99.90;;;;;;5033230;28;20083;-91
2021/08/24 06:48:15;;;;;;;0.10;0.10;;;14.10;99.90;;;;;;5021837;28;20089;-92
2021/08/24 06:50:41;;;;;;;0.20;0.20;;;14.00;99.90;;;;;;5014791;28;20494;-90
2021/08/24 06:53:07;;;;;;;0.73;0.73;;;13.80;99.90;;;;;;5006457;28;20025;-90
2021/08/24 06:55:34;;;;;;;0.10;0.10;;;13.90;99.90;;;;;;5012617;28;20026;-90
2021/08/24 06:58:00;;;;;;;0.20;0.20;;;14.00;99.90;;;;;;5010673;28;20128;-90
2021/08/24 07:00:27;;;;;;;0.30;0.30;;;14.00;99.90;;;;;;5022238;28;20372;-92
2021/08/24 07:03:12;;;;;;;;;;;;;;;;;;;;;
2021/08/24 07:06:01;;;;;;;0.43;0.40;;;14.20;99.90;;;;;;5031182;28;20052;-90
2021/08/24 07:08:30;;;;;;;0.28;0.28;;;14.00;99.90;;;;;;5009753;28;20089;-92
2021/08/24 07:11:10;;;;;;;0.20;0.20;;;14.00;99.90;;;;;;5028023;28;20025;-91
2021/08/24 07:13:37;;;;;;;0.15;0.15;;;13.90;99.90;;;;;;5018087;28;20029;-92
2021/08/24 07:16:27;;;;;;;0.10;0.10;;;13.90;99.90;;;;;;5018160;28;20039;-92
2021/08/24 07:18:54;;;;;;;0.13;0.13;;;14.00;99.90;;;;;;5020371;28;20060;-92
2021/08/24 07:21:21;;;;;;;0.10;0.10;;;14.20;99.90;;;;;;5014293;28;20033;-92
2021/08/24 07:23:53;;;;;;;0.28;0.28;;;14.20;99.90;;;;;;5018310;28;20021;-91
2021/08/24 07:26:21;;;;;;;0.10;0.10;;;14.20;99.90;;;;;;5017143;28;20045;-91
2021/08/24 07:28:49;;;;;;;0.40;0.40;;;14.20;99.90;;;;;;5017947;28;20040;-92
2021/08/24 07:31:24;;;;;;;1.50;1.40;;;14.20;99.90;;;;;;5019089;28;20041;-92
2021/08/24 07:34:10;;;;;;;0.10;0.10;;;14.10;99.90;;;;;;5018843;28;20099;-92
2021/08/24 07:36:37;;;;;;;0.10;0.10;;;14.30;99.90;;;;;;5008309;28;20379;-91
2021/08/24 07:39:18;;;;;;;0.10;0.10;;;14.20;99.90;;;;;;5015965;28;20060;-92
2021/08/24 07:41:46;;;;;;;0.60;0.60;;;14.30;99.90;;;;;;5014137;28;20053;-92
2021/08/24 07:44:38;;;;;;;0.10;0.10;;;14.30;99.90;;;;;;5015964;28;20025;-92
2021/08/24 07:47:52;;;;;;;0.10;0.10;;;14.30;99.90;;;;;;5018924;28;20030;-92
2021/08/24 07:50:27;;;;;;;0.20;0.20;;;14.20;99.90;;;;;;4887795;29;20045;-92
2021/08/24 07:52:53;;;;;;;0.20;0.20;;;14.30;99.90;;;;;;5005018;28;20041;-91
2021/08/24 07:55:57;;;;;;;0.10;0.10;;;14.20;99.90;;;;;;5024895;28;20071;-91
2021/08/24 07:58:33;;;;;;;0.17;0.17;;;14.30;99.90;;;;;;5003551;28;20112;-91
2021/08/24 08:00:59;;;;;;;0.10;0.10;;;14.30;99.90;;;;;;5019437;28;20112;-92
2021/08/24 08:03:51;;;;;;;0.52;0.52;;;14.40;99.90;;;;;;5003268;28;20026;-92
2021/08/24 08:19:15;;;;;;;;;;;14.30;99.90;;;;;;5006311;28;20038;-90
2021/08/24 08:21:41;;;;;;;0.45;0.45;;;14.20;99.90;;;;;;5014256;28;19916;-90
2021/08/24 08:24:08;;;;;;;0.13;0.13;;;14.30;99.90;;;;;;5026057;28;20379;-90
2021/08/24 08:26:38;;;;;;;0.15;0.15;;;14.30;99.90;;;;;;5024074;28;20475;-91
2021/08/24 08:29:11;;;;;;;0.10;0.10;;;14.40;99.90;;;;;;5014977;28;20035;-90
2021/08/24 08:32:00;;;;;;;0.10;0.10;;;14.50;99.90;;;;;;5022141;28;20025;-91
2021/08/24 08:34:38;;;;;;;0.10;0.10;;;14.40;99.90;;;;;;5019060;28;20021;-91
2021/08/24 08:37:05;;;;;;;0.47;0.47;;;14.30;99.90;;;;;;5010557;28;20032;-91
2021/08/24 08:39:31;;;;;;;0.10;0.10;;;14.30;99.90;;;;;;5020963;28;20009;-91
2021/08/24 08:42:19;;;;;;;0.63;0.63;;;14.30;99.90;;;;;;5036928;28;20045;-90
2021/08/24 08:45:08;;;;;;;0.10;0.10;;;14.30;99.90;;;;;;5020217;28;20021;-92
2021/08/24 08:47:55;;;;;;;0.20;0.20;;;14.30;99.90;;;;;;5007127;28;20029;-92
2021/08/24 08:50:47;;;;;;;0.10;0.10;;;14.30;99.90;;;;;;5004328;28;20478;-91
2021/08/24 08:53:51;;;;;;;0.10;0.10;;;14.50;99.90;;;;;;4996735;28;20033;-91
2021/08/24 08:56:34;;;;;;;0.10;0.10;;;14.20;99.90;;;;;;4999029;28;20026;-91
2021/08/24 08:59:16;;;;;;;0.52;0.52;;;14.20;99.90;;;;;;5014843;28;20057;-91
2021/08/24 09:02:10;;;;;;;0.40;0.30;;;14.30;99.90;;;;;;5014277;28;20061;-91
2021/08/24 09:04:52;;;;;;;0.10;0.10;;;14.30;99.90;;;;;;5003711;28;20037;-92
2021/08/24 09:07:48;;;;;;;0.10;0.10;;;14.20;99.90;;;;;;5012988;28;20176;-91
2021/08/24 09:10:20;;;;;;;0.10;0.10;;;14.10;99.90;;;;;;5010126;28;20021;-91
2021/08/24 09:13:00;;;;;;;0.15;0.15;;;14.30;99.90;;;;;;5006482;28;20051;-91
2021/08/24 09:16:04;;;;;;;0.65;0.30;;;14.50;99.90;;;;;;5004455;28;20116;-91
2021/08/24 09:19:26;;;;;;;0.10;0.10;;;14.50;99.90;;;;;;4994719;28;20403;-92
2021/08/24 09:22:15;;;;;;;1.23;0.65;;;14.50;99.90;;;;;;5015145;28;20075;-91
2021/08/24 09:25:40;;;;;;;;;;;;;;;;;;;;;
2021/08/24 09:28:48;;;;;;;0.10;0.10;;;14.40;99.90;;;;;;4930485;28;20030;-92
2021/08/24 09:31:44;;;;;;;0.10;0.10;;;14.50;99.90;;;;;;4995314;28;20029;-92
2021/08/24 09:34:23;;;;;;;0.17;0.17;;;14.60;99.90;;;;;;5014754;28;20041;-91
2021/08/24 09:37:00;;;;;;;0.10;0.10;;;14.70;99.90;;;;;;5019836;28;20029;-92
2021/08/24 09:39:57;;;;;;;0.63;0.63;;;14.90;99.90;;;;;;5014628;28;20033;-92
2021/08/24 09:43:11;;;;;;;1.17;1.08;;;14.90;99.90;;;;;;5017170;28;20026;-92
2021/08/24 09:46:28;;;;;;;0.85;0.85;;;15.00;99.90;;;;;;5023388;28;20053;-92
2021/08/24 09:49:08;;;;;;;0.77;0.68;;;15.00;99.90;;;;;;4941691;28;20031;-92
2021/08/24 09:52:31;;;;;;;;;;;;;;;;;;;;;
2021/08/24 09:55:56;;;;;;;0.10;0.10;;;14.90;99.90;;;;;;4954595;28;20055;-90
2021/08/24 10:02:44;;;;;;;0.10;0.10;;;15.20;99.90;;;;;;5047735;22;20048;-94
2021/08/24 10:05:22;;;;;;;0.32;0.32;;;15.20;99.90;;;;;;5017133;28;20025;-93
2021/08/24 10:07:52;;;;;;;0.20;0.20;;;15.10;99.90;;;;;;4988041;28;20025;-93
2021/08/24 10:10:23;;;;;;;0.10;0.10;;;15.10;99.90;;;;;;4982662;28;20030;-93
2021/08/24 10:12:53;;;;;;;0.20;0.20;;;15.20;99.90;;;;;;4980014;28;20026;-93
2021/08/24 10:15:40;;;;;;;0.10;0.10;;;15.20;99.90;;;;;;4973103;28;20060;-93
2021/08/24 10:18:12;;;;;;;0.10;0.10;;;15.40;99.90;;;;;;4979968;28;20033;-94
2021/08/24 10:20:56;;;;;;;0.10;0.10;;;15.40;99.90;;;;;;4990181;28;20207;-94
2021/08/24 10:23:27;;;;;;;0.10;0.10;;;15.50;99.90;;;;;;4985569;28;20025;-93
2021/08/24 10:25:57;;;;;;;0.13;0.13;;;15.40;99.90;;;;;;4984273;28;20036;-93
2021/08/24 10:28:28;;;;;;;0.10;0.10;;;15.30;99.90;;;;;;4981777;28;20036;-94
2021/08/24 10:30:57;;;;;;;0.85;0.85;;;15.10;99.90;;;;;;4981158;28;20410;-93
2021/08/24 10:33:24;;;;;;;0.73;0.73;;;15.00;99.90;;;;;;4981554;28;20395;-92
2021/08/24 10:36:06;;;;;;;0.10;0.10;;;14.90;99.90;;;;;;4981058;28;20037;-93
2021/08/24 10:38:56;;;;;;;0.10;0.10;;;14.90;99.90;;;;;;4994150;28;20030;-93
2021/08/24 10:41:32;;;;;;;1.10;1.00;;;14.90;99.90;;;;;;4981153;28;20057;-95
2021/08/24 10:44:04;;;;;;;0.43;0.43;;;14.90;99.90;;;;;;4976526;28;20032;-92
2021/08/24 10:46:30;;;;;;;0.93;0.70;;;14.90;99.90;;;;;;4980381;28;20025;-93
2021/08/24 10:48:57;;;;;;;0.15;0.15;;;15.10;99.90;;;;;;4980334;28;20491;-92
2021/08/24 10:52:02;;;;;;;0.03;0.03;;;15.30;99.90;;;;;;4979946;28;20057;-93
2021/08/24 10:54:53;;;;;;;0.38;0.30;;;15.50;99.90;;;;;;4930592;28;20033;-92
2021/08/24 10:57:38;;;;;;;2.43;1.00;;;15.50;99.90;;;;;;4980027;28;20029;-92
2021/08/24 11:00:30;;;;;;;0.10;0.10;;;15.20;99.90;;;;;;4980078;28;20025;-92
2021/08/24 11:03:07;;;;;;;0.10;0.10;;;15.40;99.90;;;;;;4929018;28;20061;-93
2021/08/24 11:05:52;;;;;;;3.30;0.57;;;15.50;99.90;;;;;;4975983;28;20022;-92
2021/08/24 11:08:52;;;;;;;0.20;0.20;;;15.50;99.90;;;;;;4979513;28;20084;-92
2021/08/24 11:11:18;;;;;;;2.50;1.70;;;15.60;99.90;;;;;;4968442;28;20030;-93
2021/08/24 11:13:56;;;;;;;0.98;0.98;;;15.40;99.90;;;;;;4975870;28;20033;-92
2021/08/24 11:17:02;;;;;;;0.10;0.10;;;15.20;99.90;;;;;;4979566;28;20022;-92
2021/08/24 11:19:40;;;;;;;0.88;0.40;;;15.40;99.90;;;;;;4978446;28;20038;-93
2021/08/24 11:22:50;;;;;;;0.85;0.85;;;15.50;99.90;;;;;;4979262;28;20108;-92
2021/08/24 11:25:35;;;;;;;0.10;0.10;;;15.50;99.90;;;;;;4942396;28;20033;-92
2021/08/24 11:28:27;;;;;;;0.15;0.15;;;15.50;99.90;;;;;;4976575;28;20510;-93
2021/08/24 11:31:00;;;;;;;0.10;0.10;;;15.60;99.90;;;;;;4977120;28;20124;-93
2021/08/24 11:33:35;;;;;;;0.77;0.77;;;15.90;99.90;;;;;;4985675;28;20041;-92
2021/08/24 11:36:06;;;;;;;0.20;0.20;;;16.00;99.90;;;;;;4992846;28;20155;-92
2021/08/24 11:38:39;;;;;;;0.20;0.20;;;16.10;99.90;;;;;;4981822;28;20132;-92
2021/08/24 11:41:13;;;;;;;0.10;0.10;;;16.10;99.90;;;;;;4982290;28;20044;-93
2021/08/24 11:43:45;;;;;;;0.95;0.95;;;16.30;99.90;;;;;;4985040;28;20025;-92
2021/08/24 11:46:28;;;;;;;0.10;0.10;;;16.30;99.90;;;;;;4979304;28;20026;-92
2021/08/24 11:49:19;;;;;;;3.30;1.08;;;16.30;99.90;;;;;;4979382;28;20041;-93
2021/08/24 11:51:55;;;;;;;0.65;0.65;;;16.10;99.90;;;;;;4979437;28;20076;-93
2021/08/24 11:54:44;;;;;;;0.65;0.52;;;16.10;99.90;;;;;;4990118;28;20037;-92
2021/08/24 11:57:34;;;;;;;0.93;0.90;;;16.30;99.90;;;;;;4976928;28;20022;-93
2021/08/24 12:00:00;;;;;;;0.10;0.10;;;16.40;99.90;;;;;;4979206;28;20026;-93
2021/08/24 12:02:48;;;;;;;1.33;1.23;;;16.70;99.90;;;;;;4980382;28;20502;-92
2021/08/24 12:05:26;;;;;;;1.77;0.47;;;17.00;99.90;;;;;;4979589;28;20129;-92
2021/08/24 12:08:05;;;;;;;1.70;1.60;;;17.20;99.90;;;;;;4978623;28;20460;-92
2021/08/24 12:10:36;;;;;;;0.45;0.45;;;16.90;99.90;;;;;;4979580;28;20097;-92
2021/08/24 12:13:09;;;;;;;0.10;0.10;;;16.60;99.90;;;;;;4979467;28;20014;-92
2021/08/24 12:15:46;;;;;;;1.40;1.30;;;16.80;99.90;;;;;;4980114;28;20277;-92
2021/08/24 12:18:18;;;;;;;0.10;0.10;;;16.60;99.90;;;;;;4979147;28;20592;-92
2021/08/24 12:20:45;;;;;;;;;;;16.30;99.90;;;;;;4979800;28;20459;-92
2021/08/24 12:23:16;;;;;;;0.35;0.35;;;16.30;99.90;;;;;;4979153;28;19927;-92
2021/08/24 12:25:47;;;;;;;0.10;0.10;;;16.40;99.90;;;;;;4979377;28;20026;-92
2021/08/24 12:28:15;;;;;;;0.13;0.13;;;16.60;99.90;;;;;;4979395;28;20030;-92
2021/08/24 12:30:59;;;;;;;0.20;0.20;;;16.80;99.90;;;;;;4981070;28;20034;-92
2021/08/24 12:33:44;;;;;;;0.28;0.28;;;17.00;99.90;;;;;;4979391;28;20033;-93
2021/08/24 12:36:22;;;;;;;0.10;0.10;;;17.10;99.90;;;;;;4975488;28;20136;-92
2021/08/24 12:38:56;;;;;;;0.63;0.63;;;17.10;99.90;;;;;;4980236;28;20092;-92
2021/08/24 12:41:33;;;;;;;1.17;1.05;;;17.20;99.90;;;;;;4975003;28;20026;-92
2021/08/24 12:44:11;;;;;;;0.10;0.10;;;17.20;99.90;;;;;;4979238;28;20017;-92
2021/08/24 12:46:37;;;;;;;0.90;0.90;;;17.20;99.90;;;;;;4978854;28;20501;-92
2021/08/24 12:49:19;;;;;;;1.33;1.23;;;17.40;99.90;;;;;;4981692;28;20018;-92
2021/08/24 12:51:45;;;;;;;0.38;0.38;;;17.20;99.90;;;;;;4978888;28;20525;-91
2021/08/24 12:54:12;;;;;;;0.20;0.20;;;17.10;99.90;;;;;;4978599;28;20054;-92
2021/08/24 12:56:44;;;;;;;0.10;0.10;;;17.00;99.90;;;;;;4979085;28;20041;-92
2021/08/24 12:59:28;;;;;;;0.10;0.10;;;17.40;99.90;;;;;;4978588;28;20112;-92
2021/08/24 13:02:12;;;;;;;0.10;0.10;;;17.60;99.90;;;;;;4963048;28;20058;-91
2021/08/24 13:04:44;;;;;;;0.10;0.10;;;17.60;99.90;;;;;;4982948;28;20022;-93
2021/08/24 13:07:30;;;;;;;0.43;0.30;;;17.80;99.90;;;;;;4975089;28;20494;-93
2021/08/24 13:10:25;;;;;;;0.10;0.10;;;17.60;99.90;;;;;;4979413;28;20710;-92
2021/08/24 13:12:51;;;;;;;0.17;0.17;;;17.60;99.90;;;;;;4977728;28;20030;-92
2021/08/24 13:15:27;;;;;;;0.17;0.17;;;17.80;99.90;;;;;;4980699;28;20097;-92
2021/08/24 13:18:40;;;;;;;0.10;0.10;;;17.80;99.90;;;;;;4979589;28;20021;-92
2021/08/24 13:21:26;;;;;;;;;;;18.00;99.90;;;;;;4978687;28;20033;-92
2021/08/24 13:23:59;;;;;;;1.48;1.38;;;18.00;99.90;;;;;;4977795;28;19960;-92
2021/08/24 13:26:31;;;;;;;0.10;0.10;;;18.00;99.90;;;;;;4978702;28;20022;-91
2021/08/24 13:28:58;;;;;;;3.65;3.40;;;17.80;99.90;;;;;;4978129;28;20156;-91
2021/08/24 13:31:45;;;;;;;0.10;0.10;;;17.90;99.90;;;;;;4976873;28;20034;-91
2021/08/24 13:34:40;;;;;;;0.22;0.22;;;17.80;99.90;;;;;;4975800;28;20022;-90
2021/08/24 13:37:06;;;;;;;0.77;0.73;;;17.90;99.90;;;;;;4978182;28;20467;-91
2021/08/24 13:39:32;;;;;;;0.28;0.28;;;18.00;99.90;;;;;;4978189;28;20034;-91
2021/08/24 13:42:05;;;;;;;0.30;0.30;;;18.10;99.90;;;;;;4978075;28;20026;-91
2021/08/24 13:44:35;;;;;;;0.88;0.68;;;18.10;99.90;;;;;;4982559;28;20132;-91
2021/08/24 13:47:22;;;;;;;0.52;0.40;;;18.20;99.90;;;;;;4978549;28;20032;-91
2021/08/24 13:49:51;;;;;;;0.40;0.30;;;18.20;99.90;;;;;;4973679;28;20022;-91